createdAt,value
2023-03-05T00:00:36.839Z,3.03
2023-03-05T00:03:06.865Z,5.05
2023-03-05T00:05:36.538Z,12.20
2023-03-05T00:08:06.366Z,2.80
2023-03-05T00:10:36.066Z,3.55
2023-03-05T00:13:08.365Z,3.60
2023-03-05T00:15:43.743Z,4.45
2023-03-05T00:18:13.406Z,4.43
2023-03-05T00:20:43.105Z,5.97
2023-03-05T00:23:12.806Z,5.18
2023-03-05T00:25:42.464Z,3.13
2023-03-05T00:28:15.221Z,8.98
2023-03-05T00:30:44.925Z,21.98
2023-03-05T00:33:15.309Z,13.23
2023-03-05T00:35:46.272Z,24.02
2023-03-05T00:38:16.745Z,14.07
2023-03-05T00:40:46.497Z,13.13
2023-03-05T00:43:18.866Z,6.80
2023-03-05T00:45:48.562Z,9.90
2023-03-05T00:48:18.271Z,9.90
2023-03-05T00:50:48.238Z,7.60
2023-03-05T00:53:17.953Z,5.40
2023-03-05T00:55:47.666Z,4.70
2023-03-05T00:58:19.992Z,4.10
2023-03-05T01:00:50.784Z,4.00
2023-03-05T01:03:20.760Z,5.25
2023-03-05T01:05:51.474Z,4.85
2023-03-05T01:08:21.194Z,9.65
2023-03-05T01:10:51.215Z,8.13
2023-03-05T01:13:23.708Z,5.03
2023-03-05T01:15:53.439Z,9.30
2023-03-05T01:18:23.665Z,12.23
2023-03-05T01:20:53.886Z,10.20
2023-03-05T01:23:23.701Z,12.18
2023-03-05T01:25:56.198Z,13.10
2023-03-05T01:28:28.604Z,20.00
2023-03-05T01:30:58.366Z,11.00
2023-03-05T01:33:28.104Z,8.38
2023-03-05T01:35:57.826Z,5.30
2023-03-05T01:38:27.570Z,9.85
2023-03-05T01:40:57.272Z,9.98
2023-03-05T01:43:31.560Z,13.40
2023-03-05T01:46:16.973Z,18.58
2023-03-05T01:48:48.778Z,20.13
2023-03-05T01:51:18.729Z,19.60
2023-03-05T01:53:49.333Z,12.18
2023-03-05T01:56:19.866Z,17.00
2023-03-05T01:58:53.706Z,11.93
2023-03-05T02:01:23.454Z,17.38
2023-03-05T02:03:53.453Z,7.90
2023-03-05T02:06:23.191Z,12.48
2023-03-05T02:08:52.898Z,7.97
2023-03-05T02:11:23.116Z,20.27
2023-03-05T02:13:57.248Z,18.33
2023-03-05T02:16:27.003Z,11.07
2023-03-05T02:18:56.723Z,8.63
2023-03-05T02:21:40.756Z,12.75
2023-03-05T02:24:10.695Z,7.28
2023-03-05T02:26:40.374Z,7.70
2023-03-05T02:29:12.288Z,10.90
2023-03-05T02:31:41.992Z,8.35
2023-03-05T02:34:11.785Z,27.90
2023-03-05T02:36:44.080Z,24.55
2023-03-05T02:39:14.952Z,24.33
2023-03-05T02:41:45.016Z,27.27
2023-03-05T02:44:14.852Z,17.27
2023-03-05T02:46:44.655Z,16.65
2023-03-05T02:49:14.551Z,9.57
2023-03-05T02:51:46.861Z,10.15
2023-03-05T02:54:16.582Z,13.32
2023-03-05T02:56:46.370Z,10.48
2023-03-05T02:59:16.089Z,10.75
2023-03-05T03:01:45.773Z,11.50
2023-03-05T03:04:15.547Z,8.20
2023-03-05T03:06:47.808Z,16.15
2023-03-05T03:09:17.461Z,11.85
2023-03-05T03:11:47.159Z,16.10
2023-03-05T03:14:16.873Z,8.82
2023-03-05T03:16:46.612Z,9.70
2023-03-05T03:19:16.568Z,10.80
2023-03-05T03:21:50.070Z,9.02
2023-03-05T03:24:19.791Z,4.43
2023-03-05T03:26:50.096Z,9.05
2023-03-05T03:29:19.743Z,6.43
2023-03-05T03:31:49.506Z,4.03
2023-03-05T03:34:19.896Z,7.80
2023-03-05T03:36:52.975Z,15.70
2023-03-05T03:39:23.955Z,13.35
2023-03-05T03:41:54.502Z,11.43
2023-03-05T03:44:24.461Z,9.40
2023-03-05T03:46:54.990Z,10.23
2023-03-05T03:49:25.981Z,9.45
2023-03-05T03:51:58.467Z,7.18
2023-03-05T03:54:28.138Z,12.52
2023-03-05T03:56:57.828Z,13.50
2023-03-05T03:59:27.517Z,18.23
2023-03-05T04:01:57.210Z,10.57
2023-03-05T04:04:29.251Z,10.05
2023-03-05T04:07:01.696Z,9.93
2023-03-05T04:09:31.361Z,9.70
2023-03-05T04:12:01.033Z,6.95
2023-03-05T04:14:30.708Z,5.35
2023-03-05T04:17:00.408Z,8.10
2023-03-05T04:19:34.185Z,6.10
2023-03-05T04:22:06.542Z,13.07
2023-03-05T04:24:36.250Z,5.78
2023-03-05T04:27:05.974Z,8.95
2023-03-05T04:29:36.192Z,8.57
2023-03-05T04:32:06.190Z,12.32
2023-03-05T04:34:35.957Z,10.60
2023-03-05T04:37:08.293Z,10.80
2023-03-05T04:39:38.424Z,12.73
2023-03-05T04:42:08.349Z,13.38
2023-03-05T04:44:38.018Z,10.38
2023-03-05T04:47:08.394Z,8.63
2023-03-05T04:49:38.083Z,10.27
2023-03-05T04:52:10.463Z,9.32
2023-03-05T04:54:40.330Z,7.05
2023-03-05T04:57:10.438Z,7.13
2023-03-05T04:59:40.488Z,7.20
2023-03-05T05:02:10.166Z,8.55
2023-03-05T05:04:40.554Z,6.00
2023-03-05T05:07:12.977Z,9.88
2023-03-05T05:09:42.910Z,10.52
2023-03-05T05:12:13.352Z,8.35
2023-03-05T05:14:43.036Z,8.85
2023-03-05T05:17:12.715Z,9.63
2023-03-05T05:19:42.530Z,8.02
2023-03-05T05:22:14.853Z,7.05
2023-03-05T05:24:44.682Z,6.28
2023-03-05T05:27:14.373Z,5.13
2023-03-05T05:29:46.494Z,12.50
2023-03-05T05:32:16.250Z,14.77
2023-03-05T05:34:46.051Z,12.25
2023-03-05T05:37:18.380Z,7.00
2023-03-05T05:39:50.474Z,7.15
2023-03-05T05:42:20.213Z,9.30
2023-03-05T05:44:50.206Z,7.72
2023-03-05T05:47:20.652Z,8.98
2023-03-05T05:49:50.450Z,7.68
2023-03-05T05:52:22.743Z,12.13
2023-03-05T05:54:52.440Z,10.27
2023-03-05T05:57:22.073Z,13.30
2023-03-05T05:59:51.785Z,6.28
2023-03-05T06:02:21.531Z,10.40
2023-03-05T06:04:51.421Z,10.18
2023-03-05T06:07:23.708Z,6.50
2023-03-05T06:09:53.436Z,4.68
2023-03-05T06:12:23.131Z,12.98
2023-03-05T06:14:54.074Z,12.23
2023-03-05T06:17:30.278Z,12.65
2023-03-05T06:20:01.187Z,17.67
2023-03-05T06:22:33.473Z,10.82
2023-03-05T06:25:03.577Z,5.72
2023-03-05T06:27:33.247Z,8.07
2023-03-05T06:30:02.960Z,7.40
2023-03-05T06:32:32.801Z,7.50
2023-03-05T06:35:02.613Z,4.13
2023-03-05T06:37:34.947Z,8.18
2023-03-05T06:40:05.687Z,6.38
2023-03-05T06:42:36.491Z,8.45
2023-03-05T06:45:06.836Z,11.57
2023-03-05T06:47:36.516Z,5.68
2023-03-05T06:50:06.402Z,7.80
2023-03-05T06:52:40.587Z,14.25
2023-03-05T06:55:10.962Z,12.88
2023-03-05T06:57:40.657Z,9.88
2023-03-05T07:00:12.379Z,9.13
2023-03-05T07:02:42.145Z,7.88
2023-03-05T07:05:12.106Z,9.70
2023-03-05T07:07:44.416Z,13.63
2023-03-05T07:10:14.653Z,7.18
2023-03-05T07:12:44.325Z,12.30
2023-03-05T07:15:14.549Z,17.73
2023-03-05T07:17:44.278Z,13.07
2023-03-05T07:20:14.777Z,10.95
2023-03-05T07:22:47.086Z,12.55
2023-03-05T07:25:19.470Z,11.68
2023-03-05T07:27:49.152Z,9.80
2023-03-05T07:30:18.998Z,8.35
2023-03-05T07:32:48.687Z,8.23
2023-03-05T07:35:18.577Z,4.93
2023-03-05T07:37:50.873Z,10.98
2023-03-05T07:40:22.006Z,14.25
2023-03-05T07:42:51.737Z,9.93
2023-03-05T07:45:31.174Z,5.82
2023-03-05T07:48:00.841Z,7.32
2023-03-05T07:50:30.537Z,4.78
2023-03-05T07:53:03.265Z,6.90
2023-03-05T07:55:33.278Z,5.82
2023-03-05T07:58:02.987Z,5.07
2023-03-05T08:00:32.685Z,6.25
2023-03-05T08:03:02.330Z,5.50
2023-03-05T08:05:32.069Z,6.95
2023-03-05T08:08:04.502Z,6.82
2023-03-05T08:10:34.245Z,1.08
2023-03-05T08:13:03.993Z,3.33
2023-03-05T08:15:33.936Z,1.77
2023-03-05T08:18:03.721Z,9.75
2023-03-05T08:20:33.656Z,2.28
2023-03-05T08:23:06.181Z,5.38
2023-03-05T08:25:35.867Z,4.97
2023-03-05T08:28:05.540Z,7.60
2023-03-05T08:30:35.291Z,4.47
2023-03-05T08:33:05.059Z,8.98
2023-03-05T08:35:34.874Z,2.97
2023-03-05T08:38:07.376Z,9.13
2023-03-05T08:40:37.120Z,3.50
2023-03-05T08:43:07.567Z,3.70
2023-03-05T08:45:37.296Z,5.47
2023-03-05T08:48:07.322Z,3.83
2023-03-05T08:50:39.066Z,4.90
2023-03-05T08:53:11.425Z,6.40
2023-03-05T08:55:43.219Z,5.70
2023-03-05T08:58:14.894Z,6.07
2023-03-05T09:00:44.576Z,7.07
2023-03-05T09:03:14.380Z,7.00
2023-03-05T09:05:44.106Z,6.07
2023-03-05T09:08:16.426Z,4.65
2023-03-05T09:10:46.471Z,4.05
2023-03-05T09:13:16.148Z,4.82
2023-03-05T09:15:45.822Z,4.22
2023-03-05T09:18:15.545Z,5.82
2023-03-05T09:20:45.173Z,3.90
2023-03-05T09:23:17.494Z,5.43
2023-03-05T09:25:47.139Z,7.30
2023-03-05T09:28:16.842Z,2.45
2023-03-05T09:30:46.533Z,2.90
2023-03-05T09:33:16.216Z,6.55
2023-03-05T09:35:46.003Z,4.65
2023-03-05T09:38:19.353Z,4.43
2023-03-05T09:40:51.794Z,1.27
2023-03-05T09:43:26.436Z,3.47
2023-03-05T09:46:04.856Z,4.90
2023-03-05T09:48:44.450Z,3.80
2023-03-05T09:51:16.553Z,0.93
2023-03-05T09:53:50.667Z,5.30
2023-03-05T09:56:23.501Z,6.00
2023-03-05T09:58:56.212Z,3.13
2023-03-05T10:01:29.358Z,5.13
2023-03-05T10:04:00.186Z,3.88
2023-03-05T10:06:32.173Z,2.45
2023-03-05T10:09:06.844Z,1.15
2023-03-05T10:11:45.769Z,6.53
2023-03-05T10:14:17.049Z,1.90
2023-03-05T10:16:52.704Z,3.75
2023-03-05T10:19:42.421Z,2.00
2023-03-05T10:22:17.710Z,1.75
2023-03-05T10:24:56.964Z,6.07
2023-03-05T10:27:34.255Z,6.32
2023-03-05T10:30:07.792Z,6.40
2023-03-05T10:32:45.307Z,1.65
2023-03-05T10:35:32.085Z,6.18
2023-03-05T10:38:08.533Z,5.32
2023-03-05T10:40:43.645Z,8.65
2023-03-05T10:43:20.772Z,8.30
2023-03-05T10:45:50.987Z,12.13
2023-03-05T10:48:26.712Z,16.83
2023-03-05T10:50:59.590Z,13.73
2023-03-05T10:53:31.093Z,17.67
2023-03-05T10:56:07.054Z,12.30
2023-03-05T10:58:36.794Z,6.43
2023-03-05T11:01:08.081Z,11.98
2023-03-05T11:03:49.963Z,7.75
2023-03-05T11:06:29.794Z,6.45
2023-03-05T11:09:00.282Z,3.30
2023-03-05T11:11:33.488Z,7.30
2023-03-05T11:14:03.972Z,7.85
2023-03-05T11:16:34.849Z,10.10
2023-03-05T11:19:20.099Z,8.30
2023-03-05T11:21:50.422Z,13.70
2023-03-05T11:24:21.152Z,5.57
2023-03-05T11:26:55.266Z,5.85
2023-03-05T11:29:26.254Z,8.32
2023-03-05T11:31:56.415Z,5.45
2023-03-05T11:34:30.289Z,5.60
2023-03-05T11:37:04.719Z,7.00
2023-03-05T11:39:36.812Z,5.57
2023-03-05T11:42:09.974Z,11.40
2023-03-05T11:44:44.601Z,8.98
2023-03-05T11:47:19.896Z,6.20
2023-03-05T11:49:51.620Z,4.65
2023-03-05T11:52:24.647Z,6.88
2023-03-05T11:54:57.276Z,6.32
2023-03-05T11:57:30.033Z,8.27
2023-03-05T12:00:01.012Z,5.32
2023-03-05T12:02:31.160Z,4.35
2023-03-05T12:05:03.460Z,4.07
2023-03-05T12:07:37.692Z,6.75
2023-03-05T12:10:07.788Z,5.20
2023-03-05T12:12:44.655Z,5.72
2023-03-05T12:15:30.409Z,2.58
2023-03-05T12:18:06.812Z,5.03
2023-03-05T12:20:39.804Z,4.68
2023-03-05T12:23:13.953Z,3.88
2023-03-05T12:25:48.807Z,5.03
2023-03-05T12:28:41.684Z,6.20
2023-03-05T12:31:24.909Z,7.78
2023-03-05T12:33:54.604Z,4.25
2023-03-05T12:36:37.840Z,4.47
2023-03-05T12:39:22.446Z,3.33
2023-03-05T12:41:52.158Z,2.25
2023-03-05T12:44:25.129Z,6.93
2023-03-05T12:47:16.929Z,5.55
2023-03-05T12:49:48.474Z,6.90
2023-03-05T12:52:23.933Z,6.20
2023-03-05T12:55:08.361Z,3.35
2023-03-05T12:57:38.792Z,7.07
2023-03-05T13:00:13.858Z,6.35
2023-03-05T13:02:45.474Z,3.25
2023-03-05T13:05:21.045Z,5.75
2023-03-05T13:07:50.894Z,5.90
2023-03-05T13:10:27.745Z,4.22
2023-03-05T13:12:58.799Z,4.85
2023-03-05T13:15:31.750Z,2.20
2023-03-05T13:18:03.477Z,4.65
2023-03-05T13:20:37.804Z,7.93
2023-03-05T13:23:08.528Z,3.15
2023-03-05T13:25:38.256Z,9.85
2023-03-05T13:28:09.665Z,4.15
2023-03-05T13:30:41.955Z,9.85
2023-03-05T13:33:19.736Z,4.07
2023-03-05T13:35:51.029Z,6.63
2023-03-05T13:38:34.161Z,6.65
2023-03-05T13:41:04.788Z,11.05
2023-03-05T13:43:34.857Z,26.58
2023-03-05T13:46:07.358Z,9.57
2023-03-05T13:48:37.166Z,3.30
2023-03-05T13:51:09.595Z,4.45
2023-03-05T13:53:39.349Z,5.68
2023-03-05T13:56:10.318Z,7.55
2023-03-05T13:58:47.374Z,7.78
2023-03-05T14:01:23.644Z,5.72
2023-03-05T14:03:54.058Z,5.18
2023-03-05T14:06:24.615Z,7.10
2023-03-05T14:08:56.049Z,2.60
2023-03-05T14:11:26.052Z,3.58
2023-03-05T14:14:08.854Z,3.53
2023-03-05T14:16:41.298Z,5.18
2023-03-05T14:19:30.030Z,7.78
2023-03-05T14:21:59.838Z,11.75
2023-03-05T14:24:31.474Z,3.85
2023-03-05T14:27:03.438Z,5.18
2023-03-05T14:29:33.202Z,7.88
2023-03-05T14:32:07.443Z,6.63
2023-03-05T14:34:38.957Z,6.88
2023-03-05T14:37:10.555Z,12.00
2023-03-05T14:39:47.027Z,8.52
2023-03-05T14:42:27.005Z,8.68
2023-03-05T14:44:56.897Z,13.73
2023-03-05T14:47:29.571Z,16.23
2023-03-05T14:49:59.291Z,32.55
2023-03-05T14:52:29.099Z,38.03
2023-03-05T14:54:58.842Z,18.65
2023-03-05T14:57:29.815Z,20.92
2023-03-05T14:59:59.992Z,21.90
2023-03-05T15:02:32.355Z,23.73
2023-03-05T15:05:02.021Z,19.05
2023-03-05T15:07:35.921Z,17.23
2023-03-05T15:10:06.464Z,36.63
2023-03-05T15:12:39.051Z,24.15
2023-03-05T15:15:09.745Z,33.30
2023-03-05T15:17:43.458Z,10.88
2023-03-05T15:20:17.015Z,31.27
2023-03-05T15:22:46.823Z,27.27
2023-03-05T15:25:17.215Z,16.33
2023-03-05T15:27:47.693Z,24.23
2023-03-05T15:30:23.987Z,15.02
2023-03-05T15:32:56.896Z,8.25
2023-03-05T15:35:27.841Z,11.93
2023-03-05T15:37:58.078Z,2.90
2023-03-05T15:40:28.438Z,8.05
2023-03-05T15:42:58.575Z,7.43
2023-03-05T15:45:31.389Z,9.90
2023-03-05T15:48:03.806Z,7.78
2023-03-05T15:50:33.509Z,3.42
2023-03-05T15:53:03.288Z,4.07
2023-03-05T15:55:32.991Z,3.85
2023-03-05T16:00:52.807Z,2.30
2023-03-05T16:03:25.961Z,5.72
2023-03-05T16:05:55.812Z,4.88
2023-03-05T16:08:27.845Z,3.97
2023-03-05T16:10:57.583Z,5.13
2023-03-05T16:13:29.332Z,4.53
2023-03-05T16:15:59.537Z,4.95
2023-03-05T16:18:32.778Z,7.70
2023-03-05T16:21:02.665Z,5.07
2023-03-05T16:23:32.350Z,9.48
2023-03-05T16:26:02.138Z,11.93
2023-03-05T16:28:31.805Z,6.65
2023-03-05T16:31:02.024Z,9.27
2023-03-05T16:33:34.410Z,6.50
2023-03-05T16:36:24.044Z,6.82
2023-03-05T16:38:54.939Z,8.82
2023-03-05T16:41:25.252Z,10.30
2023-03-05T16:43:56.539Z,7.78
2023-03-05T16:46:26.443Z,7.05
2023-03-05T16:48:58.808Z,13.00
2023-03-05T16:51:29.709Z,8.57
2023-03-05T16:53:59.457Z,4.05
2023-03-05T16:56:29.254Z,7.05
2023-03-05T16:58:59.314Z,6.65
2023-03-05T17:01:30.365Z,13.68
2023-03-05T17:04:03.867Z,19.67
2023-03-05T17:06:34.957Z,29.73
2023-03-05T17:09:05.372Z,8.00
2023-03-05T17:11:35.232Z,7.85
2023-03-05T17:14:05.046Z,7.60
2023-03-05T17:16:34.792Z,8.88
2023-03-05T17:19:07.175Z,5.32
2023-03-05T17:21:36.845Z,6.97
2023-03-05T17:24:06.781Z,9.48
2023-03-05T17:26:36.581Z,8.25
2023-03-05T17:29:06.928Z,7.00
2023-03-05T17:31:36.845Z,11.45
2023-03-05T17:34:09.294Z,9.73
2023-03-05T17:36:39.393Z,6.38
2023-03-05T17:39:09.086Z,10.02
2023-03-05T17:41:38.811Z,8.32
2023-03-05T17:44:08.587Z,12.52
2023-03-05T17:46:38.282Z,9.80
2023-03-05T17:49:10.725Z,11.45
2023-03-05T17:51:40.796Z,7.40
2023-03-05T17:54:10.579Z,7.88
2023-03-05T17:56:40.310Z,6.90
2023-03-05T17:59:10.130Z,5.75
2023-03-05T18:01:39.874Z,4.53
2023-03-05T18:04:12.928Z,4.43
2023-03-05T18:06:42.652Z,6.32
2023-03-05T18:09:12.537Z,5.35
2023-03-05T18:11:42.232Z,6.43
2023-03-05T18:14:12.025Z,7.07
2023-03-05T18:16:41.826Z,6.20
2023-03-05T18:19:14.165Z,4.68
2023-03-05T18:21:44.291Z,9.30
2023-03-05T18:24:14.113Z,7.60
2023-03-05T18:26:43.832Z,10.85
2023-03-05T18:29:13.504Z,9.93
2023-03-05T18:31:43.255Z,8.43
2023-03-05T18:34:15.670Z,7.95
2023-03-05T18:36:45.361Z,7.03
2023-03-05T18:39:16.619Z,10.63
2023-03-05T18:41:46.437Z,11.07
2023-03-05T18:44:16.365Z,7.45
2023-03-05T18:46:46.069Z,6.95
2023-03-05T18:49:18.356Z,10.40
2023-03-05T18:51:48.237Z,8.35
2023-03-05T18:54:17.928Z,5.28
2023-03-05T18:56:47.628Z,7.00
2023-03-05T18:59:17.321Z,5.40
2023-03-05T19:01:47.110Z,6.78
2023-03-05T19:04:19.483Z,7.90
2023-03-05T19:06:49.196Z,6.10
2023-03-05T19:09:51.847Z,7.32
2023-03-05T19:12:22.248Z,12.82
2023-03-05T19:14:52.065Z,10.32
2023-03-05T19:17:21.804Z,6.30
2023-03-05T19:19:58.980Z,11.23
2023-03-05T19:22:29.677Z,10.77
2023-03-05T19:24:59.349Z,15.25
2023-03-05T19:27:29.325Z,17.88
2023-03-05T19:30:00.196Z,20.80
2023-03-05T19:32:30.043Z,21.08
2023-03-05T19:35:02.394Z,13.80
2023-03-05T19:37:33.399Z,12.98
2023-03-05T19:40:03.256Z,15.15
2023-03-05T19:42:32.924Z,21.85
2023-03-05T19:45:02.987Z,13.13
2023-03-05T19:47:32.722Z,15.07
2023-03-05T19:50:05.537Z,12.27
2023-03-05T19:52:35.220Z,12.70
2023-03-05T19:55:04.890Z,17.15
2023-03-05T19:57:35.094Z,10.77
2023-03-05T20:00:04.842Z,6.72
2023-03-05T20:02:34.756Z,7.07
2023-03-05T20:05:07.303Z,14.68
2023-03-05T20:07:36.975Z,16.92
2023-03-05T20:10:06.951Z,13.43
2023-03-05T20:12:36.784Z,13.38
2023-03-05T20:15:06.664Z,6.07
2023-03-05T20:17:36.453Z,10.82
2023-03-05T20:20:09.577Z,9.25
2023-03-05T20:22:39.238Z,13.35
2023-03-05T20:25:09.817Z,12.48
2023-03-05T20:27:39.479Z,13.02
2023-03-05T20:30:10.605Z,14.05
2023-03-05T20:32:41.030Z,15.48
2023-03-05T20:35:15.571Z,19.80
2023-03-05T20:38:15.161Z,17.30
2023-03-05T20:40:44.864Z,20.42
2023-03-05T20:43:14.608Z,14.85
2023-03-05T20:45:44.436Z,16.83
2023-03-05T20:48:14.171Z,20.42
2023-03-05T20:50:46.931Z,11.90
2023-03-05T20:53:16.892Z,16.08
2023-03-05T20:55:46.693Z,15.35
2023-03-05T20:58:16.469Z,12.07
2023-03-05T21:00:46.206Z,15.60
2023-03-05T21:03:15.910Z,14.93
2023-03-05T21:05:48.177Z,14.82
2023-03-05T21:08:17.879Z,17.60
2023-03-05T21:10:47.556Z,10.70
2023-03-05T21:13:17.331Z,13.63
2023-03-05T21:15:47.053Z,13.80
2023-03-05T21:18:16.734Z,11.98
2023-03-05T21:20:49.062Z,15.85
2023-03-05T21:23:18.742Z,24.77
2023-03-05T21:25:48.472Z,15.70
2023-03-05T21:28:19.215Z,33.25
2023-03-05T21:30:49.733Z,20.35
2023-03-05T21:33:21.599Z,17.30
2023-03-05T21:35:54.522Z,18.55
2023-03-05T21:38:25.480Z,27.55
2023-03-05T21:40:55.918Z,13.70
2023-03-05T21:43:26.911Z,19.77
2023-03-05T21:45:57.825Z,21.90
2023-03-05T21:48:27.931Z,23.70
2023-03-05T21:51:00.359Z,23.33
2023-03-05T21:53:30.045Z,25.33
2023-03-05T21:56:26.831Z,14.25
2023-03-05T21:58:56.824Z,19.23
2023-03-05T22:01:26.621Z,37.50
2023-03-05T22:03:56.559Z,55.80
2023-03-05T22:06:28.856Z,30.27
2023-03-05T22:08:59.115Z,35.00
2023-03-05T22:11:28.797Z,45.00
2023-03-05T22:13:58.466Z,54.83
2023-03-05T22:16:29.331Z,44.38
2023-03-05T22:18:59.647Z,44.95
2023-03-05T22:21:31.948Z,32.88
2023-03-05T22:24:02.427Z,24.70
2023-03-05T22:26:36.726Z,20.30
2023-03-05T22:29:08.528Z,17.70
2023-03-05T22:31:38.877Z,63.97
2023-03-05T22:34:08.555Z,44.08
2023-03-05T22:36:41.133Z,43.90
2023-03-05T22:39:10.871Z,27.48
2023-03-05T22:41:43.139Z,42.40
2023-03-05T22:44:12.820Z,29.50
2023-03-05T22:46:42.485Z,27.83
2023-03-05T22:49:12.213Z,22.67
2023-03-05T22:51:44.492Z,25.83
2023-03-05T22:54:14.286Z,18.98
2023-03-05T22:56:43.931Z,20.77
2023-03-05T22:59:13.614Z,15.20
2023-03-05T23:01:43.581Z,5.40
2023-03-05T23:04:40.541Z,11.98
2023-03-05T23:07:15.650Z,13.00
2023-03-05T23:09:45.378Z,11.23
2023-03-05T23:12:15.272Z,9.20
2023-03-05T23:14:44.945Z,18.58
2023-03-05T23:17:14.717Z,13.27
2023-03-05T23:19:44.547Z,14.05
2023-03-05T23:22:16.984Z,14.77
2023-03-05T23:24:46.666Z,12.55
2023-03-05T23:27:17.959Z,13.57
2023-03-05T23:30:15.927Z,13.85
2023-03-05T23:32:47.112Z,11.13
2023-03-05T23:35:17.709Z,11.88
2023-03-05T23:37:50.095Z,11.27
2023-03-05T23:40:21.348Z,13.30
2023-03-05T23:42:51.442Z,12.85
2023-03-05T23:45:21.864Z,10.02
2023-03-05T23:47:51.723Z,9.40
2023-03-05T23:50:22.551Z,8.63
2023-03-05T23:52:55.240Z,12.65
2023-03-05T23:55:26.177Z,10.93
2023-03-05T23:57:56.233Z,8.68
